Terminal Aerodrome Forecast
Issued by NWS Twin Cities, MN

Home | Current Version | Previous Version | Graphics & Text | Print | Product List | Glossary On
Versions: 1 2 3 4 5 6 7 8 9 10 11 12 13 14 15 16 17 18 19
000
FTUS43 KMPX 272332
TAFSTC
TAF
KSTC 272332Z 2800/2824 15010KT P6SM OVC015
     FM280300 15008KT P6SM OVC008
     FM281000 14009KT P6SM OVC012
     FM282100 VRB04KT P6SM OVC018=

USA.gov is the U.S. government's official web portal to all federal, state and local government web resources and services.